createdAt,value
2022-10-07T00:04:46.462Z,8.29
2022-10-07T00:14:48.158Z,9.80
2022-10-07T00:24:50.108Z,12.68
2022-10-07T00:34:51.880Z,11.80
2022-10-07T00:44:53.539Z,9.01
2022-10-07T00:54:56.642Z,7.48
2022-10-07T01:04:59.559Z,9.06
2022-10-07T01:15:04.420Z,11.99
2022-10-07T01:25:24.965Z,13.27
2022-10-07T01:35:28.293Z,11.93
2022-10-07T01:45:30.948Z,8.91
2022-10-07T01:55:40.589Z,7.17
2022-10-07T02:05:55.751Z,8.76
2022-10-07T02:16:10.417Z,11.42
2022-10-07T02:26:14.818Z,10.50
2022-10-07T02:36:20.201Z,7.78
2022-10-07T02:46:22.661Z,6.34
2022-10-07T02:56:25.905Z,8.07
2022-10-07T03:06:29.841Z,11.11
2022-10-07T03:16:32.807Z,12.42
2022-10-07T03:26:35.557Z,11.19
2022-10-07T03:36:39.401Z,8.36
2022-10-07T03:46:42.300Z,9.45
2022-10-07T03:56:44.754Z,12.07
2022-10-07T04:06:46.619Z,13.20
2022-10-07T04:16:49.121Z,12.02
2022-10-07T04:26:51.310Z,9.09
2022-10-07T04:36:54.950Z,9.95
2022-10-07T04:46:57.216Z,12.41
2022-10-07T04:57:01.295Z,13.30
2022-10-07T05:07:03.523Z,11.92
2022-10-07T05:17:06.570Z,9.10
2022-10-07T05:27:09.480Z,10.26
2022-10-07T05:37:12.239Z,12.86
2022-10-07T05:47:14.349Z,12.05
2022-10-07T05:57:16.465Z,12.20
2022-10-07T06:07:21.432Z,12.46
2022-10-07T06:17:29.222Z,10.62
2022-10-07T06:27:33.370Z,12.79
2022-10-07T06:37:35.233Z,14.14
2022-10-07T06:47:38.853Z,12.61
2022-10-07T06:57:46.051Z,14.62
2022-10-07T07:07:59.049Z,16.24
2022-10-07T07:18:01.953Z,14.57
2022-10-07T07:28:05.720Z,14.08
2022-10-07T07:38:08.806Z,16.26
2022-10-07T07:48:13.145Z,17.90
2022-10-07T07:58:15.991Z,16.79
2022-10-07T08:08:18.143Z,16.02
2022-10-07T08:18:26.325Z,15.01
2022-10-07T08:28:29.336Z,16.37
2022-10-07T08:38:33.499Z,19.25
2022-10-07T08:48:38.450Z,18.65
2022-10-07T08:58:44.220Z,16.36
2022-10-07T09:08:48.281Z,17.49
2022-10-07T09:18:56.278Z,18.29
2022-10-07T09:28:59.017Z,16.55
2022-10-07T09:39:16.061Z,15.86
2022-10-07T09:49:30.222Z,17.97
2022-10-07T09:59:33.651Z,18.97
2022-10-07T10:09:35.473Z,17.41
2022-10-07T10:19:37.557Z,16.78
2022-10-07T10:29:58.481Z,16.43
2022-10-07T10:40:12.773Z,18.57
2022-10-07T10:50:33.223Z,19.54
2022-10-07T11:00:41.222Z,17.85
2022-10-07T11:10:56.637Z,17.17
2022-10-07T11:20:59.641Z,16.78
2022-10-07T11:31:20.349Z,16.57
2022-10-07T11:41:26.660Z,16.41
2022-10-07T11:51:30.528Z,16.30
2022-10-07T12:01:35.549Z,16.26
2022-10-07T12:11:37.261Z,16.33
2022-10-07T12:22:02.913Z,16.47
2022-10-07T12:32:24.924Z,16.62
2022-10-07T12:42:26.902Z,16.77
2022-10-07T12:52:34.525Z,16.77
2022-10-07T13:02:36.537Z,16.71
2022-10-07T13:12:40.916Z,16.70
2022-10-07T13:22:49.278Z,16.66
2022-10-07T13:32:51.257Z,16.66
2022-10-07T13:42:54.664Z,16.61
2022-10-07T13:52:56.696Z,16.73
2022-10-07T14:02:59.480Z,19.14
2022-10-07T14:13:01.153Z,20.14
2022-10-07T14:23:05.772Z,18.25
2022-10-07T14:33:31.193Z,17.27
2022-10-07T14:43:33.782Z,16.76
2022-10-07T14:53:36.125Z,19.36
2022-10-07T15:03:38.110Z,18.00
2022-10-07T15:13:39.837Z,16.80
2022-10-07T15:23:41.564Z,18.19
2022-10-07T15:33:44.673Z,18.72
2022-10-07T15:43:46.266Z,16.64
2022-10-07T15:53:48.021Z,16.08
2022-10-07T16:03:50.177Z,18.69
2022-10-07T16:13:52.796Z,19.75
2022-10-07T16:23:58.773Z,18.56
2022-10-07T16:34:01.091Z,16.16
2022-10-07T16:44:03.251Z,18.21
2022-10-07T16:54:06.401Z,19.30
2022-10-07T17:04:08.175Z,18.05
2022-10-07T17:14:11.933Z,15.19
2022-10-07T17:24:15.695Z,15.98
2022-10-07T17:34:20.016Z,18.07
2022-10-07T17:44:21.882Z,17.04
2022-10-07T17:54:24.394Z,16.57
2022-10-07T18:04:26.487Z,18.42
2022-10-07T18:14:51.101Z,17.07
2022-10-07T18:24:57.582Z,16.55
2022-10-07T18:34:59.718Z,16.28
2022-10-07T18:45:01.532Z,15.99
2022-10-07T18:55:03.507Z,17.70
2022-10-07T19:05:05.623Z,16.54
2022-10-07T19:15:07.628Z,13.79
2022-10-07T19:25:29.766Z,14.62
2022-10-07T19:35:33.778Z,16.94
2022-10-07T19:45:36.805Z,17.78
2022-10-07T19:55:44.365Z,16.32
2022-10-07T20:05:46.290Z,15.76
2022-10-07T20:15:48.094Z,17.29
2022-10-07T20:25:49.982Z,16.05
2022-10-07T20:35:52.853Z,15.50
2022-10-07T20:45:59.896Z,17.17
2022-10-07T20:56:05.103Z,17.77
2022-10-07T21:06:07.777Z,14.99
2022-10-07T21:16:10.065Z,15.30
2022-10-07T21:26:12.947Z,17.27
2022-10-07T21:36:16.718Z,16.19
2022-10-07T21:46:18.470Z,13.74
2022-10-07T21:56:20.670Z,16.19
2022-10-07T22:06:43.098Z,17.48
2022-10-07T22:16:47.463Z,16.12
2022-10-07T22:26:51.802Z,15.65
2022-10-07T22:36:54.567Z,17.08
2022-10-07T22:46:56.850Z,14.33
2022-10-07T22:56:58.578Z,14.72
2022-10-07T23:07:00.365Z,16.89
2022-10-07T23:17:02.118Z,17.71
2022-10-07T23:27:03.941Z,16.24
2022-10-07T23:37:05.854Z,13.24
2022-10-07T23:47:07.593Z,14.22
2022-10-07T23:57:09.309Z,16.47
